createdAt,value
2023-03-16T00:00:56.829Z,8.88
2023-03-16T00:03:24.533Z,9.65
2023-03-16T00:05:54.319Z,8.20
2023-03-16T00:08:21.904Z,8.20
2023-03-16T00:10:49.518Z,8.82
2023-03-16T00:13:20.005Z,8.52
2023-03-16T00:15:52.395Z,8.25
2023-03-16T00:18:20.163Z,8.15
2023-03-16T00:20:51.772Z,8.57
2023-03-16T00:23:19.583Z,9.15
2023-03-16T00:25:47.210Z,8.63
2023-03-16T00:28:14.837Z,9.95
2023-03-16T00:30:47.442Z,8.68
2023-03-16T00:33:15.088Z,9.15
2023-03-16T00:35:50.728Z,9.45
2023-03-16T00:38:18.616Z,9.25
2023-03-16T00:40:46.344Z,8.43
2023-03-16T00:43:18.577Z,8.70
2023-03-16T00:45:47.663Z,9.25
2023-03-16T00:48:16.440Z,8.45
2023-03-16T00:50:44.208Z,9.10
2023-03-16T00:53:11.859Z,8.70
2023-03-16T00:55:39.507Z,9.07
2023-03-16T00:58:07.157Z,8.32
2023-03-16T01:00:36.092Z,8.68
2023-03-16T01:03:05.089Z,8.18
2023-03-16T01:05:33.721Z,8.25
2023-03-16T01:08:02.806Z,9.68
2023-03-16T01:10:30.575Z,9.38
2023-03-16T01:12:58.274Z,9.10
2023-03-16T01:15:25.914Z,9.40
2023-03-16T01:17:54.393Z,9.32
2023-03-16T01:20:23.890Z,10.18
2023-03-16T01:22:51.885Z,9.00
2023-03-16T01:25:20.582Z,9.07
2023-03-16T01:27:48.483Z,9.10
2023-03-16T01:30:16.346Z,8.88
2023-03-16T01:32:44.138Z,8.95
2023-03-16T01:35:11.914Z,9.05
2023-03-16T01:37:41.397Z,8.38
2023-03-16T01:40:12.273Z,8.73
2023-03-16T01:42:46.806Z,8.73
2023-03-16T01:45:52.724Z,9.25
2023-03-16T01:48:22.674Z,8.70
2023-03-16T01:50:52.306Z,8.32
2023-03-16T01:53:22.030Z,9.20
2023-03-16T01:55:50.154Z,8.60
2023-03-16T01:58:18.652Z,9.73
2023-03-16T02:00:46.250Z,8.93
2023-03-16T02:03:16.590Z,8.60
2023-03-16T02:05:45.829Z,8.23
2023-03-16T02:08:13.440Z,8.68
2023-03-16T02:10:42.398Z,9.30
2023-03-16T02:13:11.178Z,9.85
2023-03-16T02:15:39.024Z,8.85
2023-03-16T02:18:07.842Z,9.20
2023-03-16T02:20:40.898Z,9.68
2023-03-16T02:23:18.561Z,9.48
2023-03-16T02:25:52.688Z,9.05
2023-03-16T02:28:26.273Z,9.13
2023-03-16T02:30:55.307Z,10.40
2023-03-16T02:33:23.708Z,10.20
2023-03-16T02:35:51.726Z,9.32
2023-03-16T02:38:19.396Z,9.18
2023-03-16T02:40:58.159Z,9.50
2023-03-16T02:43:30.162Z,9.70
2023-03-16T02:46:00.770Z,9.38
2023-03-16T02:48:32.731Z,9.82
2023-03-16T02:51:00.758Z,10.02
2023-03-16T02:53:28.442Z,9.20
2023-03-16T02:55:56.183Z,9.70
2023-03-16T02:58:23.795Z,10.15
2023-03-16T03:00:51.468Z,11.48
2023-03-16T03:03:20.472Z,10.88
2023-03-16T03:05:48.363Z,9.70
2023-03-16T03:08:16.387Z,10.52
2023-03-16T03:10:44.046Z,10.05
2023-03-16T03:13:12.298Z,10.75
2023-03-16T03:15:40.375Z,10.55
2023-03-16T03:18:08.977Z,9.40
2023-03-16T03:20:37.991Z,10.40
2023-03-16T03:23:05.687Z,10.13
2023-03-16T03:25:34.846Z,10.70
2023-03-16T03:28:05.474Z,10.43
2023-03-16T03:30:33.479Z,11.02
2023-03-16T03:33:01.526Z,10.20
2023-03-16T03:35:29.249Z,10.98
2023-03-16T03:37:58.249Z,9.82
2023-03-16T03:40:26.420Z,10.90
2023-03-16T03:42:54.168Z,10.07
2023-03-16T03:45:21.849Z,10.50
2023-03-16T03:47:49.499Z,9.95
2023-03-16T03:50:17.449Z,9.73
2023-03-16T03:52:45.075Z,9.85
2023-03-16T03:55:14.300Z,10.25
2023-03-16T03:57:42.095Z,9.40
2023-03-16T04:00:11.549Z,11.07
2023-03-16T04:02:39.519Z,9.80
2023-03-16T04:05:08.031Z,10.07
2023-03-16T04:07:35.718Z,9.88
2023-03-16T04:10:03.376Z,9.88
2023-03-16T04:12:32.406Z,10.35
2023-03-16T04:15:00.047Z,10.93
2023-03-16T04:17:27.717Z,9.82
2023-03-16T04:19:55.376Z,10.07
2023-03-16T04:22:23.589Z,10.85
2023-03-16T04:24:52.251Z,10.20
2023-03-16T04:27:19.880Z,10.13
2023-03-16T04:29:48.835Z,10.43
2023-03-16T04:32:16.475Z,10.18
2023-03-16T04:34:44.267Z,10.02
2023-03-16T04:37:12.196Z,10.60
2023-03-16T04:39:39.948Z,11.07
2023-03-16T04:42:08.019Z,9.45
2023-03-16T04:44:43.979Z,10.65
2023-03-16T04:47:13.665Z,9.95
2023-03-16T04:49:41.557Z,10.35
2023-03-16T04:52:09.601Z,9.93
2023-03-16T04:54:37.283Z,10.13
2023-03-16T04:57:05.760Z,10.30
2023-03-16T04:59:33.418Z,9.95
2023-03-16T05:02:01.037Z,9.85
2023-03-16T05:04:29.981Z,11.15
2023-03-16T05:06:57.614Z,10.45
2023-03-16T05:09:25.857Z,10.73
2023-03-16T05:11:53.478Z,11.20
2023-03-16T05:14:21.113Z,11.05
2023-03-16T05:16:48.746Z,10.13
2023-03-16T05:19:16.349Z,10.45
2023-03-16T05:21:46.082Z,10.18
2023-03-16T05:24:13.693Z,10.50
2023-03-16T05:26:41.318Z,10.35
2023-03-16T05:29:11.050Z,11.25
2023-03-16T05:31:38.720Z,9.70
2023-03-16T05:34:06.325Z,10.05
2023-03-16T05:36:35.907Z,10.48
2023-03-16T05:39:05.082Z,11.60
2023-03-16T05:41:32.761Z,11.75
2023-03-16T05:44:00.636Z,11.40
2023-03-16T05:46:28.250Z,12.20
2023-03-16T05:48:55.866Z,11.43
2023-03-16T05:51:26.316Z,11.80
2023-03-16T05:53:56.667Z,11.98
2023-03-16T05:56:26.723Z,11.90
2023-03-16T05:58:54.968Z,11.63
2023-03-16T06:01:22.824Z,12.70
2023-03-16T06:03:51.902Z,11.80
2023-03-16T06:06:20.465Z,11.32
2023-03-16T06:08:48.086Z,11.90
2023-03-16T06:11:16.037Z,11.43
2023-03-16T06:13:45.337Z,12.25
2023-03-16T06:16:14.373Z,12.20
2023-03-16T06:18:42.121Z,11.23
2023-03-16T06:21:09.763Z,11.73
2023-03-16T06:23:37.368Z,11.32
2023-03-16T06:26:05.376Z,11.98
2023-03-16T06:28:32.981Z,11.48
2023-03-16T06:31:02.006Z,12.63
2023-03-16T06:33:29.678Z,12.23
2023-03-16T06:35:57.354Z,12.65
2023-03-16T06:38:25.064Z,11.45
2023-03-16T06:40:53.822Z,12.38
2023-03-16T06:43:21.455Z,11.82
2023-03-16T06:45:49.154Z,11.88
2023-03-16T06:48:18.178Z,11.98
2023-03-16T06:50:46.184Z,13.27
2023-03-16T06:53:13.936Z,13.85
2023-03-16T06:55:41.645Z,14.30
2023-03-16T06:58:09.304Z,13.18
2023-03-16T07:00:36.939Z,11.75
2023-03-16T07:03:04.953Z,12.82
2023-03-16T07:05:34.078Z,13.70
2023-03-16T07:08:02.198Z,12.57
2023-03-16T07:10:30.249Z,12.43
2023-03-16T07:12:58.029Z,11.60
2023-03-16T07:15:26.602Z,11.95
2023-03-16T07:17:54.313Z,12.75
2023-03-16T07:20:23.660Z,11.95
2023-03-16T07:22:52.907Z,12.80
2023-03-16T07:25:21.347Z,12.40
2023-03-16T07:27:49.026Z,12.77
2023-03-16T07:30:17.011Z,12.57
2023-03-16T07:32:44.723Z,12.57
2023-03-16T07:35:12.514Z,12.82
2023-03-16T07:37:40.136Z,12.27
2023-03-16T07:40:11.210Z,11.65
2023-03-16T07:42:38.857Z,17.58
2023-03-16T07:45:07.830Z,11.57
2023-03-16T07:47:35.485Z,12.65
2023-03-16T07:50:03.259Z,11.95
2023-03-16T07:52:30.881Z,11.95
2023-03-16T07:54:58.544Z,11.02
2023-03-16T07:57:27.521Z,11.23
2023-03-16T07:59:55.192Z,11.15
2023-03-16T08:02:22.944Z,10.93
2023-03-16T08:04:51.541Z,10.52
2023-03-16T08:07:19.269Z,10.88
2023-03-16T08:09:47.113Z,12.30
2023-03-16T08:12:14.822Z,11.65
2023-03-16T08:14:45.712Z,10.25
2023-03-16T08:17:13.690Z,11.40
2023-03-16T08:19:43.074Z,10.55
2023-03-16T08:22:10.703Z,12.20
2023-03-16T08:24:38.414Z,11.82
2023-03-16T08:27:06.155Z,11.88
2023-03-16T08:29:34.811Z,11.55
2023-03-16T08:32:03.852Z,11.70
2023-03-16T08:34:31.853Z,12.32
2023-03-16T08:37:01.114Z,11.32
2023-03-16T08:39:29.091Z,11.88
2023-03-16T08:41:57.324Z,10.90
2023-03-16T08:44:26.117Z,11.30
2023-03-16T08:46:53.821Z,11.82
2023-03-16T08:49:23.992Z,11.57
2023-03-16T08:51:51.806Z,13.30
2023-03-16T08:54:19.573Z,11.88
2023-03-16T08:56:47.187Z,11.82
2023-03-16T08:59:28.817Z,11.52
2023-03-16T09:01:57.225Z,11.68
2023-03-16T09:04:26.488Z,12.15
2023-03-16T09:07:09.998Z,11.57
2023-03-16T09:09:37.834Z,11.52
2023-03-16T09:12:06.520Z,11.55
2023-03-16T09:14:34.362Z,11.70
2023-03-16T09:17:01.970Z,12.05
2023-03-16T09:19:47.868Z,12.35
2023-03-16T09:22:18.515Z,11.30
2023-03-16T09:24:46.236Z,12.73
2023-03-16T09:27:13.915Z,11.93
2023-03-16T09:29:42.605Z,12.40
2023-03-16T09:32:11.087Z,12.45
2023-03-16T09:34:40.220Z,12.13
2023-03-16T09:37:08.236Z,11.82
2023-03-16T09:39:37.107Z,12.10
2023-03-16T09:42:13.887Z,12.73
2023-03-16T09:44:45.302Z,12.63
2023-03-16T09:47:13.544Z,13.68
2023-03-16T09:49:45.430Z,12.55
2023-03-16T09:52:21.678Z,12.00
2023-03-16T09:54:52.522Z,11.57
2023-03-16T09:57:26.560Z,14.02
2023-03-16T09:59:54.955Z,13.82
2023-03-16T10:02:39.682Z,13.27
2023-03-16T10:05:10.556Z,12.80
2023-03-16T10:07:44.281Z,14.50
2023-03-16T10:10:22.202Z,14.82
2023-03-16T10:12:52.603Z,12.38
2023-03-16T10:15:21.969Z,13.73
2023-03-16T10:17:53.779Z,13.15
2023-03-16T10:20:24.439Z,13.52
2023-03-16T10:22:53.607Z,12.48
2023-03-16T10:25:24.103Z,12.57
2023-03-16T10:27:52.007Z,12.32
2023-03-16T10:30:23.443Z,12.25
2023-03-16T10:32:51.476Z,11.80
2023-03-16T10:35:31.092Z,11.85
2023-03-16T10:37:58.989Z,10.63
2023-03-16T10:40:27.950Z,11.45
2023-03-16T10:42:55.942Z,12.02
2023-03-16T10:45:27.415Z,11.68
2023-03-16T10:47:56.020Z,10.68
2023-03-16T10:50:27.759Z,11.98
2023-03-16T10:52:57.608Z,11.60
2023-03-16T10:55:30.679Z,11.60
2023-03-16T10:57:58.504Z,10.77
2023-03-16T11:00:28.987Z,11.60
2023-03-16T11:02:57.405Z,12.20
2023-03-16T11:05:31.716Z,11.45
2023-03-16T11:08:10.409Z,11.43
2023-03-16T11:10:49.422Z,10.68
2023-03-16T11:13:19.531Z,9.38
2023-03-16T11:15:52.130Z,10.48
2023-03-16T11:18:31.452Z,9.85
2023-03-16T11:21:03.702Z,10.43
2023-03-16T11:26:01.131Z,10.05
2023-03-16T11:28:35.781Z,11.00
2023-03-16T11:31:10.082Z,11.00
2023-03-16T11:33:38.055Z,10.52
2023-03-16T11:36:27.733Z,11.00
2023-03-16T11:39:04.688Z,10.10
2023-03-16T11:41:40.637Z,10.55
2023-03-16T11:44:15.628Z,9.80
2023-03-16T11:46:50.234Z,10.77
2023-03-16T11:49:35.872Z,10.55
2023-03-16T11:52:10.795Z,10.07
2023-03-16T11:54:49.242Z,10.57
2023-03-16T11:57:30.744Z,10.38
2023-03-16T12:00:06.184Z,10.00
2023-03-16T12:02:46.474Z,9.65
2023-03-16T12:05:36.430Z,10.57
2023-03-16T12:08:16.893Z,10.77
2023-03-16T12:10:47.219Z,10.55
2023-03-16T12:13:33.119Z,10.60
2023-03-16T12:16:02.651Z,9.73
2023-03-16T12:18:38.586Z,10.18
2023-03-16T12:21:12.285Z,10.23
2023-03-16T12:23:56.127Z,10.23
2023-03-16T12:26:26.459Z,10.63
2023-03-16T12:28:55.304Z,10.45
2023-03-16T12:31:25.239Z,10.13
2023-03-16T12:33:59.842Z,10.27
2023-03-16T12:36:44.536Z,10.35
2023-03-16T12:39:16.908Z,10.45
2023-03-16T12:41:54.098Z,10.60
2023-03-16T12:44:23.957Z,12.40
2023-03-16T12:46:57.677Z,10.93
2023-03-16T12:49:26.556Z,11.07
2023-03-16T12:52:01.501Z,10.82
2023-03-16T12:54:30.678Z,10.68
2023-03-16T12:57:02.159Z,11.25
2023-03-16T12:59:38.293Z,10.52
2023-03-16T13:02:06.744Z,10.20
2023-03-16T13:04:39.318Z,11.15
2023-03-16T13:07:09.160Z,10.70
2023-03-16T13:09:43.878Z,11.07
2023-03-16T13:12:23.503Z,10.30
2023-03-16T13:14:54.700Z,10.73
2023-03-16T13:17:28.484Z,10.55
2023-03-16T13:20:06.722Z,10.90
2023-03-16T13:22:45.224Z,11.27
2023-03-16T13:25:18.098Z,10.65
2023-03-16T13:27:47.723Z,10.45
2023-03-16T13:30:21.370Z,10.55
2023-03-16T13:32:49.456Z,10.25
2023-03-16T13:35:18.908Z,11.35
2023-03-16T13:37:47.203Z,10.80
2023-03-16T13:40:21.821Z,10.35
2023-03-16T13:42:52.800Z,10.70
2023-03-16T13:45:23.816Z,10.68
2023-03-16T13:47:52.128Z,10.45
2023-03-16T13:50:20.760Z,11.07
2023-03-16T13:52:57.019Z,10.50
2023-03-16T13:55:31.308Z,11.27
2023-03-16T13:57:59.141Z,10.55
2023-03-16T14:00:29.305Z,10.88
2023-03-16T14:02:59.246Z,10.00
2023-03-16T14:05:29.420Z,10.60
2023-03-16T14:08:00.504Z,11.20
2023-03-16T14:10:32.217Z,11.07
2023-03-16T14:13:09.177Z,10.95
2023-03-16T14:15:38.094Z,11.00
2023-03-16T14:18:15.585Z,10.82
2023-03-16T14:20:43.659Z,10.80
2023-03-16T14:23:23.136Z,10.65
2023-03-16T14:25:53.530Z,10.63
2023-03-16T14:28:23.876Z,10.95
2023-03-16T14:30:52.682Z,10.45
2023-03-16T14:33:30.944Z,11.23
2023-03-16T14:36:00.704Z,10.43
2023-03-16T14:38:31.978Z,10.88
2023-03-16T14:41:07.544Z,10.60
2023-03-16T14:43:38.242Z,10.35
2023-03-16T14:46:07.366Z,11.32
2023-03-16T14:48:35.952Z,11.23
2023-03-16T14:51:04.462Z,11.23
2023-03-16T14:53:32.110Z,10.73
2023-03-16T14:56:01.175Z,10.73
2023-03-16T14:58:28.809Z,10.75
2023-03-16T15:00:56.514Z,11.02
2023-03-16T15:03:32.996Z,10.50
2023-03-16T15:06:01.343Z,10.75
2023-03-16T15:08:32.092Z,10.02
2023-03-16T15:11:04.899Z,9.80
2023-03-16T15:13:47.112Z,9.85
2023-03-16T15:16:15.102Z,9.95
2023-03-16T15:18:43.371Z,9.90
2023-03-16T15:21:12.855Z,10.13
2023-03-16T15:23:41.507Z,10.20
2023-03-16T15:26:12.463Z,9.90
2023-03-16T15:28:40.121Z,10.10
2023-03-16T15:31:08.418Z,9.75
2023-03-16T15:33:36.115Z,10.45
2023-03-16T15:36:12.025Z,10.15
2023-03-16T15:38:40.783Z,10.10
2023-03-16T15:41:11.928Z,10.15
2023-03-16T15:43:40.549Z,10.52
2023-03-16T15:46:08.254Z,9.63
2023-03-16T15:48:35.929Z,9.75
2023-03-16T15:51:07.622Z,10.82
2023-03-16T15:53:38.394Z,10.00
2023-03-16T15:56:07.481Z,9.70
2023-03-16T15:58:38.081Z,9.98
2023-03-16T16:01:06.777Z,9.73
2023-03-16T16:03:34.804Z,9.15
2023-03-16T16:06:02.516Z,10.32
2023-03-16T16:08:30.208Z,9.43
2023-03-16T16:10:58.075Z,9.45
2023-03-16T16:13:37.460Z,9.50
2023-03-16T16:16:12.410Z,9.63
2023-03-16T16:18:40.211Z,9.23
2023-03-16T16:21:11.178Z,9.73
2023-03-16T16:23:38.904Z,10.13
2023-03-16T16:26:10.828Z,8.85
2023-03-16T16:28:38.467Z,9.80
2023-03-16T16:31:14.288Z,9.35
2023-03-16T16:33:41.989Z,8.85
2023-03-16T16:36:14.868Z,9.43
2023-03-16T16:38:42.532Z,9.02
2023-03-16T16:41:10.719Z,9.40
2023-03-16T16:43:40.346Z,9.00
2023-03-16T16:46:14.282Z,8.68
2023-03-16T16:48:44.841Z,9.18
2023-03-16T16:51:18.409Z,8.80
2023-03-16T16:53:46.109Z,9.70
2023-03-16T16:56:15.428Z,9.07
2023-03-16T16:58:43.810Z,8.90
2023-03-16T17:01:16.559Z,9.40
2023-03-16T17:03:44.219Z,8.70
2023-03-16T17:06:15.690Z,8.75
2023-03-16T17:08:43.743Z,8.15
2023-03-16T17:11:14.190Z,8.25
2023-03-16T17:13:41.954Z,8.98
2023-03-16T17:16:11.776Z,8.18
2023-03-16T17:18:40.809Z,8.75
2023-03-16T17:21:11.943Z,8.70
2023-03-16T17:23:39.702Z,8.43
2023-03-16T17:26:14.217Z,8.25
2023-03-16T17:28:45.613Z,8.80
2023-03-16T17:31:13.821Z,8.55
2023-03-16T17:33:43.097Z,8.20
2023-03-16T17:36:11.821Z,8.38
2023-03-16T17:38:39.693Z,8.50
2023-03-16T17:41:07.908Z,8.07
2023-03-16T17:43:35.803Z,8.50
2023-03-16T17:46:04.382Z,8.40
2023-03-16T17:48:33.605Z,8.40
2023-03-16T17:51:02.685Z,8.68
2023-03-16T17:53:30.337Z,8.38
2023-03-16T17:55:58.052Z,8.65
2023-03-16T17:58:28.882Z,8.60
2023-03-16T18:00:56.746Z,8.05
2023-03-16T18:03:29.329Z,8.88
2023-03-16T18:05:58.394Z,8.25
2023-03-16T18:08:29.670Z,8.27
2023-03-16T18:10:58.991Z,8.43
2023-03-16T18:13:28.881Z,8.15
2023-03-16T18:15:57.406Z,8.35
2023-03-16T18:18:27.756Z,7.90
2023-03-16T18:20:56.232Z,8.45
2023-03-16T18:23:25.650Z,7.75
2023-03-16T18:25:56.189Z,8.32
2023-03-16T18:28:24.231Z,8.20
2023-03-16T18:30:53.528Z,8.52
2023-03-16T18:33:25.313Z,8.65
2023-03-16T18:35:54.707Z,8.32
2023-03-16T18:38:30.120Z,9.05
2023-03-16T18:40:59.941Z,8.18
2023-03-16T18:43:28.520Z,8.25
2023-03-16T18:45:56.820Z,7.72
2023-03-16T18:48:27.857Z,8.57
2023-03-16T18:50:55.696Z,8.10
2023-03-16T18:53:23.798Z,9.07
2023-03-16T18:55:52.071Z,8.90
2023-03-16T18:58:23.940Z,8.88
2023-03-16T19:00:53.927Z,8.80
2023-03-16T19:03:24.753Z,9.30
2023-03-16T19:05:53.080Z,9.57
2023-03-16T19:08:21.355Z,9.60
2023-03-16T19:10:51.127Z,9.32
2023-03-16T19:13:22.494Z,9.02
2023-03-16T19:15:52.137Z,9.02
2023-03-16T19:18:20.056Z,9.48
2023-03-16T19:20:50.234Z,10.50
2023-03-16T19:23:21.742Z,9.98
2023-03-16T19:25:50.430Z,9.45
2023-03-16T19:28:23.977Z,9.52
2023-03-16T19:30:51.680Z,10.20
2023-03-16T19:33:22.105Z,9.60
2023-03-16T19:35:52.150Z,9.90
2023-03-16T19:38:20.449Z,9.38
2023-03-16T19:40:49.566Z,9.27
2023-03-16T19:43:18.711Z,9.27
2023-03-16T19:45:48.569Z,9.43
2023-03-16T19:48:20.342Z,8.98
2023-03-16T19:50:49.169Z,9.25
2023-03-16T19:53:19.531Z,8.30
2023-03-16T19:55:47.975Z,9.20
2023-03-16T19:58:21.162Z,9.13
2023-03-16T20:00:51.062Z,9.20
2023-03-16T20:03:18.789Z,8.80
2023-03-16T20:05:46.501Z,9.38
2023-03-16T20:08:23.009Z,9.90
2023-03-16T20:10:50.944Z,8.68
2023-03-16T20:13:18.929Z,9.23
2023-03-16T20:15:47.459Z,8.95
2023-03-16T20:18:18.880Z,9.48
2023-03-16T20:20:47.284Z,6.50
2023-03-16T20:23:19.658Z,8.50
2023-03-16T20:25:47.791Z,8.50
2023-03-16T20:28:19.667Z,8.88
2023-03-16T20:30:48.664Z,9.05
2023-03-16T20:33:23.818Z,8.90
2023-03-16T20:35:53.470Z,8.52
2023-03-16T20:38:21.843Z,8.68
2023-03-16T20:40:52.465Z,9.05
2023-03-16T20:43:25.443Z,8.15
2023-03-16T20:45:54.403Z,8.82
2023-03-16T20:48:25.432Z,9.65
2023-03-16T20:50:53.593Z,8.80
2023-03-16T20:53:21.553Z,8.93
2023-03-16T20:55:50.533Z,8.93
2023-03-16T20:58:24.677Z,9.30
2023-03-16T21:00:53.175Z,9.45
2023-03-16T21:03:23.953Z,8.82
2023-03-16T21:05:52.453Z,9.48
2023-03-16T21:08:20.742Z,9.15
2023-03-16T21:10:50.056Z,10.93
2023-03-16T21:13:19.778Z,13.00
2023-03-16T21:15:49.912Z,10.95
2023-03-16T21:18:19.870Z,13.57
2023-03-16T21:20:50.036Z,14.02
2023-03-16T21:23:20.749Z,13.35
2023-03-16T21:25:50.402Z,12.75
2023-03-16T21:28:19.167Z,11.43
2023-03-16T21:30:48.955Z,10.70
2023-03-16T21:33:21.403Z,11.07
2023-03-16T21:35:50.590Z,9.73
2023-03-16T21:38:20.485Z,9.63
2023-03-16T21:40:49.133Z,9.77
2023-03-16T21:43:17.205Z,10.70
2023-03-16T21:45:45.353Z,10.02
2023-03-16T21:48:15.526Z,9.57
2023-03-16T21:50:44.086Z,9.52
2023-03-16T21:53:20.731Z,9.13
2023-03-16T21:55:48.945Z,9.10
2023-03-16T21:58:17.916Z,9.65
2023-03-16T22:00:46.887Z,9.55
2023-03-16T22:03:24.672Z,9.18
2023-03-16T22:05:52.456Z,9.00
2023-03-16T22:08:23.175Z,8.68
2023-03-16T22:10:52.062Z,9.45
2023-03-16T22:13:20.344Z,9.40
2023-03-16T22:15:51.533Z,10.30
2023-03-16T22:18:28.209Z,11.47
2023-03-16T22:20:56.457Z,10.07
2023-03-16T22:23:32.004Z,11.93
2023-03-16T22:25:59.716Z,11.55
2023-03-16T22:28:28.092Z,10.55
2023-03-16T22:30:57.499Z,10.30
2023-03-16T22:33:28.207Z,10.40
2023-03-16T22:35:56.190Z,10.57
2023-03-16T22:38:23.865Z,10.18
2023-03-16T22:40:53.214Z,11.68
2023-03-16T22:43:25.384Z,12.43
2023-03-16T22:48:27.282Z,11.25
2023-03-16T22:50:55.200Z,9.65
2023-03-16T22:53:26.741Z,9.18
2023-03-16T22:55:56.586Z,9.80
2023-03-16T22:58:29.547Z,8.82
2023-03-16T23:00:57.681Z,8.90
2023-03-16T23:03:25.857Z,8.30
2023-03-16T23:05:53.723Z,9.55
2023-03-16T23:08:23.517Z,8.88
2023-03-16T23:10:52.577Z,8.60
2023-03-16T23:13:25.138Z,9.05
2023-03-16T23:15:55.351Z,8.38
2023-03-16T23:18:24.913Z,8.68
2023-03-16T23:20:53.317Z,8.93
2023-03-16T23:23:21.044Z,9.88
2023-03-16T23:25:49.100Z,9.13
2023-03-16T23:28:18.791Z,10.18
2023-03-16T23:30:47.959Z,10.57
2023-03-16T23:33:16.323Z,9.50
2023-03-16T23:35:46.562Z,9.43
2023-03-16T23:38:14.600Z,9.38
2023-03-16T23:40:42.307Z,9.18
2023-03-16T23:43:10.077Z,10.13
2023-03-16T23:45:40.018Z,9.00
2023-03-16T23:48:14.196Z,9.05
2023-03-16T23:50:42.665Z,9.55
2023-03-16T23:53:13.515Z,9.35
2023-03-16T23:55:41.876Z,8.52
2023-03-16T23:58:09.939Z,8.25
